createdAt,value
2018-01-05T00:08:58.693Z,-0.14
2018-01-05T00:18:35.097Z,-0.23
2018-01-05T00:28:11.343Z,-0.23
2018-01-05T00:37:47.079Z,-0.13
2018-01-05T00:47:24.432Z,-0.13
2018-01-05T00:57:00.409Z,-0.13
2018-01-05T01:06:36.720Z,-0.33
2018-01-05T01:16:13.326Z,-0.33
2018-01-05T01:25:49.560Z,-0.33
2018-01-05T01:35:25.362Z,-0.43
2018-01-05T01:45:02.300Z,-0.53
2018-01-05T01:54:39.522Z,-0.43
2018-01-05T02:04:15.702Z,-0.43
2018-01-05T02:13:52.574Z,-0.72
2018-01-05T02:23:29.754Z,-0.82
2018-01-05T02:33:05.846Z,-0.82
2018-01-05T02:42:41.816Z,-0.82
2018-01-05T02:52:18.886Z,-0.82
2018-01-05T03:01:55.463Z,-1.02
2018-01-05T03:11:32.426Z,-0.92
2018-01-05T03:21:10.020Z,-0.92
2018-01-05T03:30:46.519Z,-0.92
2018-01-05T03:40:22.915Z,-0.92
2018-01-05T03:50:00.056Z,-0.82
2018-01-05T03:59:36.228Z,-0.72
2018-01-05T04:09:13.630Z,-0.62
2018-01-05T04:18:49.431Z,-0.72
2018-01-05T04:28:26.509Z,-0.82
2018-01-05T04:38:02.626Z,-0.82
2018-01-05T04:47:40.337Z,-0.72
2018-01-05T04:57:17.003Z,-0.72
2018-01-05T05:06:53.284Z,-0.92
2018-01-05T05:16:28.937Z,-1.01
2018-01-05T05:26:06.238Z,-0.82
2018-01-05T05:35:42.887Z,-0.92
2018-01-05T05:45:19.080Z,-1.02
2018-01-05T05:54:55.123Z,-1.01
2018-01-05T06:04:30.987Z,-1.11
2018-01-05T06:14:08.414Z,-1.21
2018-01-05T06:23:45.110Z,-1.11
2018-01-05T06:33:21.920Z,-1.11
2018-01-05T06:42:58.680Z,-1.21
2018-01-05T06:52:34.938Z,-1.31
2018-01-05T07:02:11.110Z,-0.72
2018-01-05T07:11:48.641Z,-0.92
2018-01-05T07:21:26.094Z,-0.62
2018-01-05T07:31:03.028Z,0.06
2018-01-05T07:40:40.156Z,0.06
2018-01-05T07:50:16.743Z,0.06
2018-01-05T07:59:53.103Z,0.16
2018-01-05T08:09:29.267Z,0.45
2018-01-05T08:19:05.841Z,0.84
2018-01-05T08:28:46.991Z,1.43
2018-01-05T08:38:17.891Z,1.53
2018-01-05T08:47:54.962Z,1.92
2018-01-05T08:57:31.376Z,2.41
2018-01-05T09:07:10.796Z,3.29
2018-01-05T09:16:52.016Z,3.68
2018-01-05T09:26:22.966Z,4.27
2018-01-05T09:35:59.976Z,4.66
2018-01-05T09:45:36.797Z,4.75
2018-01-05T09:55:14.230Z,5.24
2018-01-05T10:04:51.694Z,5.73
2018-01-05T10:14:32.991Z,6.32
2018-01-05T10:24:04.190Z,6.61
2018-01-05T10:33:40.839Z,7.01
2018-01-05T10:43:18.206Z,7.79
2018-01-05T10:52:54.705Z,8.28
2018-01-05T11:02:32.504Z,8.67
2018-01-05T11:12:08.814Z,9.94
2018-01-05T11:21:44.990Z,10.62
2018-01-05T11:31:22.175Z,9.74
2018-01-05T11:40:57.815Z,8.96
2018-01-05T11:50:34.890Z,9.26
2018-01-05T12:00:11.356Z,9.35
2018-01-05T12:09:47.783Z,10.23
2018-01-05T12:19:25.366Z,10.13
2018-01-05T12:29:01.372Z,10.23
2018-01-05T12:38:37.635Z,9.45
2018-01-05T19:03:03.362Z,12.38
2018-01-05T19:12:20.624Z,4.46
2018-01-05T19:21:49.957Z,3.09
2018-01-05T19:31:23.342Z,2.31
2018-01-05T19:40:58.429Z,2.11
2018-01-05T19:50:38.560Z,2.11
2018-01-05T20:00:11.170Z,1.82
2018-01-05T20:09:44.149Z,1.82
2018-01-05T20:19:12.564Z,1.43
2018-01-05T20:28:48.316Z,1.23
2018-01-05T20:38:24.403Z,1.14
2018-01-05T20:48:01.989Z,1.04
2018-01-05T20:57:35.737Z,0.84
2018-01-05T21:07:11.965Z,0.75
2018-01-05T21:16:47.994Z,0.55
2018-01-05T21:26:24.045Z,0.55
2018-01-05T21:36:00.965Z,0.45
2018-01-05T21:45:37.457Z,0.55
2018-01-05T21:55:14.248Z,0.35
2018-01-05T22:04:50.964Z,0.35
2018-01-05T22:14:27.041Z,0.26
2018-01-05T22:24:03.187Z,0.35
2018-01-05T22:33:40.292Z,0.36
2018-01-05T22:43:17.308Z,0.45
2018-01-05T22:52:54.239Z,0.16
2018-01-05T23:02:30.750Z,0.26
2018-01-05T23:12:07.030Z,0.45
2018-01-05T23:21:43.406Z,0.35
2018-01-05T23:31:20.183Z,0.06
2018-01-05T23:40:56.752Z,0.06
2018-01-05T23:50:33.912Z,0.26
